DTTALCLK

Guest
Details From DTTA - Carthage
To LCLK - Larnaca
Flight Number -
Tags Generated
Created
Modified
Stats Distance 1,143 nm / 2,117 km
Max Altitude 0 ft / 0 m
Waypoints 5
Social Downloads 1
Likes 0
Share VATSIM

Download

Looking for another format? Having issues loading an existing format? Contact us
Advertisement - Login to hide

Notes

Generated

Route

DTTA SIG24 RESTI SOLAB LCLK

ID Type Via Altitude Latitude Longitude Leg Dist Tot Dist Heading (true) Name
O DTTA APT - 0 ft / 0 m 36.85426˚ 10.21769˚ - 0 nm - -
SIG24 FIX - 0 ft / 0 m 37.11204˚ 14.97702˚ 228 nm 228 nm 85° / 88° -
RESTI FIX - 0 ft / 0 m 36.46778˚ 24.43972˚ 456 nm 685 nm 92° / 98° -
SOLAB FIX - 0 ft / 0 m 34.96167˚ 33.32167˚ 442 nm 1127 nm 99° / 104° -
O LCLK APT - 0 ft / 0 m 34.86568˚ 33.61326˚ 15 nm 1143 nm 112° / 112° -

Altitude Profile

Advertisement - Login to hide

Weather


0- 5 10 15 20 25 30 35+ Temperature / ° C

Clouds and Precipitation
Forecast for 2017-12-11 12:00 UTC. Updated 2 hours ago

Ground ~20,000 ft ~40,000 ft Winds

DTTA

Details ICAO DTTA (TUN)
Name CARTHAGE
Region Tunisia
Timezone Africa/Tunis (UTC+1.0)
Stats Elevation 22 ft / 7 m (AMSL)
Location 36.851267° 10.230027°
Runways 2
Magnetic Variation 2.402° E

METAR

DTTA 111200Z 17014KT 9999 FEW026 19/07 Q1009 NOSIG

Decode

TAF

TAF DTTA 111100Z 1112/1212 18015KT 9999 FEW026 TEMPO 1116/1124 18016G27KT

Decode

Departure Runways

ID Width Length Bearing (true) Bearing (mag) Surface Threshold Offset Overrun Length
01 148 ft / 45 m 10,502 ft / 3,201 m 12.29° 9.89° Asphalt 0 ft / 0 m 197 ft / 60 m
11 148 ft / 45 m 9,345 ft / 2,848 m 112.55° 110.15° Asphalt 0 ft / 0 m 643 ft / 196 m
19 148 ft / 45 m 10,502 ft / 3,201 m 192.29° 189.89° Asphalt 0 ft / 0 m 197 ft / 60 m
29 148 ft / 45 m 9,345 ft / 2,848 m 292.57° 290.17° Asphalt 657 ft / 200 m 197 ft / 60 m

LCLK

Details ICAO LCLK (LCA)
Name Larnaca
Region Cyprus
Timezone Asia/Nicosia (UTC+2.0)
Stats Elevation 8 ft / 2 m (AMSL)
Location 34.875115° 33.624832°
Runways 1
Magnetic Variation 4.990° E

METAR

LCLK 111230Z 07007KT 9999 FEW030 20/10 Q1025 NOSIG

Decode

TAF

TAF LCLK 111130Z 1112/1212 06012KT 9999 FEW030 BECMG 1115/1118 36009KT BECMG 1205/1208 06011KT

Decode

Destination Runways

ID Width Length Bearing (true) Bearing (mag) Surface Threshold Offset Overrun Length
04 148 ft / 45 m 9,771 ft / 2,978 m 45.15° 40.16° Asphalt 0 ft / 0 m 210 ft / 64 m
22 148 ft / 45 m 9,771 ft / 2,978 m 225.17° 220.18° Asphalt 575 ft / 175 m 0 ft / 0 m

Approach Navaids

Runway Type Ident Frequency Range Bearing (true) Bearing (mag) Slope Elevation
22 Localiser ILC 110.30 MHz 18 nm / 33 km 225.17° 220.18° - 8 ft / 2 m (AMSL)
22 Glidescope ILC 110.30 MHz 10 nm / 19 km 225.16° 220.17° 2.75° 24 ft / 7 m (AMSL)
22 DME ILC 110.30 MHz 18 nm / 33 km - - - 20 ft / 6 m (AMSL)